createdAt,value
2023-04-09T00:02:01.979Z,100.00
2023-04-09T00:04:32.084Z,100.00
2023-04-09T00:07:02.671Z,100.00
2023-04-09T00:09:33.879Z,100.00
2023-04-09T00:12:06.627Z,100.00
2023-04-09T00:14:36.894Z,100.00
2023-04-09T00:17:07.533Z,100.00
2023-04-09T00:19:37.730Z,100.00
2023-04-09T00:22:08.751Z,100.00
2023-04-09T00:24:39.133Z,100.00
2023-04-09T00:27:09.609Z,100.00
2023-04-09T00:29:42.543Z,100.00
2023-04-09T00:32:13.129Z,100.00
2023-04-09T00:34:43.546Z,100.00
2023-04-09T00:37:17.473Z,100.00
2023-04-09T00:39:48.981Z,100.00
2023-04-09T00:42:36.699Z,100.00
2023-04-09T00:45:22.591Z,100.00
2023-04-09T00:48:08.534Z,100.00
2023-04-09T00:50:54.720Z,100.00
2023-04-09T00:53:23.468Z,100.00
2023-04-09T00:56:01.122Z,100.00
2023-04-09T00:58:31.665Z,100.00
2023-04-09T01:01:04.082Z,100.00
2023-04-09T01:03:40.922Z,100.00
2023-04-09T01:06:22.914Z,100.00
2023-04-09T01:09:03.477Z,100.00
2023-04-09T01:12:01.861Z,100.00
2023-04-09T01:14:36.876Z,100.00
2023-04-09T01:17:16.386Z,100.00
2023-04-09T01:20:11.878Z,100.00
2023-04-09T01:22:49.206Z,100.00
2023-04-09T01:25:32.616Z,100.00
2023-04-09T01:28:19.173Z,100.00
2023-04-09T01:30:52.511Z,100.00
2023-04-09T01:33:29.008Z,100.00
2023-04-09T01:36:01.173Z,100.00
2023-04-09T01:38:32.956Z,100.00
2023-04-09T01:41:11.772Z,100.00
2023-04-09T01:43:42.640Z,100.00
2023-04-09T01:46:15.422Z,100.00
2023-04-09T01:48:53.463Z,100.00
2023-04-09T01:51:23.786Z,100.00
2023-04-09T01:53:54.164Z,100.00
2023-04-09T01:56:27.842Z,100.00
2023-04-09T01:58:58.503Z,100.00
2023-04-09T02:01:34.501Z,100.00
2023-04-09T02:04:03.020Z,100.00
2023-04-09T02:06:46.230Z,100.00
2023-04-09T02:09:15.906Z,100.00
2023-04-09T02:11:42.864Z,100.00
2023-04-09T02:14:12.577Z,100.00
2023-04-09T02:16:40.113Z,100.00
2023-04-09T02:19:11.298Z,100.00
2023-04-09T02:21:43.766Z,100.00
2023-04-09T02:24:13.928Z,100.00
2023-04-09T02:26:44.420Z,100.00
2023-04-09T02:29:14.733Z,100.00
2023-04-09T02:31:45.498Z,100.00
2023-04-09T02:34:16.395Z,100.00
2023-04-09T02:36:47.014Z,100.00
2023-04-09T02:39:20.385Z,100.00
2023-04-09T02:41:51.628Z,100.00
2023-04-09T02:44:21.654Z,100.00
2023-04-09T02:46:52.479Z,100.00
2023-04-09T02:49:24.728Z,100.00
2023-04-09T02:51:55.612Z,100.00
2023-04-09T02:54:25.661Z,100.00
2023-04-09T02:57:00.356Z,100.00
2023-04-09T02:59:32.262Z,100.00
2023-04-09T03:02:02.043Z,100.00
2023-04-09T03:04:32.743Z,100.00
2023-04-09T03:07:03.819Z,100.00
2023-04-09T03:09:34.125Z,100.00
2023-04-09T03:12:05.270Z,100.00
2023-04-09T03:14:38.675Z,100.00
2023-04-09T03:17:08.923Z,100.00
2023-04-09T03:19:39.852Z,100.00
2023-04-09T03:22:10.099Z,100.00
2023-04-09T03:24:40.636Z,100.00
2023-04-09T03:27:10.964Z,100.00
2023-04-09T03:29:40.953Z,100.00
2023-04-09T03:32:14.188Z,100.00
2023-04-09T03:34:44.769Z,100.00
2023-04-09T03:37:15.588Z,100.00
2023-04-09T03:39:46.672Z,100.00
2023-04-09T03:42:17.878Z,100.00
2023-04-09T03:44:48.592Z,100.00
2023-04-09T03:47:19.636Z,100.00
2023-04-09T03:49:51.917Z,100.00
2023-04-09T03:52:22.959Z,100.00
2023-04-09T03:54:54.093Z,100.00
2023-04-09T03:57:27.676Z,100.00
2023-04-09T03:59:58.336Z,100.00
2023-04-09T04:02:32.885Z,100.00
2023-04-09T04:05:00.770Z,100.00
2023-04-09T04:07:32.168Z,100.00
2023-04-09T04:10:05.895Z,100.00
2023-04-09T04:12:35.144Z,100.00
2023-04-09T04:15:10.272Z,100.00
2023-04-09T04:17:40.726Z,100.00
2023-04-09T04:20:11.513Z,100.00
2023-04-09T04:22:45.646Z,100.00
2023-04-09T04:25:16.375Z,100.00
2023-04-09T04:27:46.948Z,100.00
2023-04-09T04:30:18.564Z,100.00
2023-04-09T04:32:49.651Z,100.00
2023-04-09T04:35:21.118Z,100.00
2023-04-09T04:37:51.243Z,100.00
2023-04-09T04:40:25.527Z,100.00
2023-04-09T04:42:56.138Z,100.00
2023-04-09T04:45:26.783Z,100.00
2023-04-09T04:47:57.330Z,100.00
2023-04-09T04:50:27.750Z,100.00
2023-04-09T04:52:58.348Z,100.00
2023-04-09T04:55:28.858Z,100.00
2023-04-09T04:58:03.663Z,100.00
2023-04-09T05:00:34.077Z,100.00
2023-04-09T05:03:04.909Z,100.00
2023-04-09T05:05:36.811Z,100.00
2023-04-09T05:08:07.451Z,100.00
2023-04-09T05:10:40.981Z,100.00
2023-04-09T05:13:08.968Z,100.00
2023-04-09T05:15:44.311Z,100.00
2023-04-09T05:18:14.724Z,100.00
2023-04-09T05:20:46.441Z,100.00
2023-04-09T05:23:17.262Z,100.00
2023-04-09T05:25:49.517Z,100.00
2023-04-09T05:28:18.918Z,100.00
2023-04-09T05:30:50.035Z,100.00
2023-04-09T05:33:22.725Z,100.00
2023-04-09T05:35:53.187Z,100.00
2023-04-09T05:38:24.113Z,100.00
2023-04-09T05:40:54.901Z,100.00
2023-04-09T05:43:25.350Z,100.00
2023-04-09T05:45:55.383Z,100.00
2023-04-09T05:48:26.650Z,100.00
2023-04-09T05:51:01.256Z,100.00
2023-04-09T05:53:31.720Z,100.00
2023-04-09T05:56:01.367Z,100.00
2023-04-09T05:58:31.790Z,100.00
2023-04-09T06:01:02.139Z,100.00
2023-04-09T06:03:32.979Z,100.00
2023-04-09T06:06:03.820Z,100.00
2023-04-09T06:08:38.511Z,100.00
2023-04-09T06:11:09.844Z,100.00
2023-04-09T06:13:40.986Z,100.00
2023-04-09T06:16:16.231Z,100.00
2023-04-09T06:18:48.923Z,100.00
2023-04-09T06:21:17.845Z,100.00
2023-04-09T06:23:48.603Z,100.00
2023-04-09T06:26:20.468Z,100.00
2023-04-09T06:28:51.644Z,100.00
2023-04-09T06:31:22.356Z,100.00
2023-04-09T06:33:56.560Z,100.00
2023-04-09T06:36:28.070Z,100.00
2023-04-09T06:38:59.100Z,100.00
2023-04-09T06:41:35.634Z,100.00
2023-04-09T06:44:06.503Z,100.00
2023-04-09T06:46:38.174Z,100.00
2023-04-09T06:49:08.960Z,100.00
2023-04-09T06:51:40.331Z,100.00
2023-04-09T06:54:10.850Z,100.00
2023-04-09T06:56:41.612Z,100.00
2023-04-09T06:59:17.542Z,100.00
2023-04-09T07:01:48.888Z,100.00
2023-04-09T07:04:19.618Z,100.00
2023-04-09T07:06:54.143Z,100.00
2023-04-09T07:09:23.847Z,100.00
2023-04-09T07:11:55.026Z,100.00
2023-04-09T07:14:25.474Z,100.00
2023-04-09T07:16:56.478Z,100.00
2023-04-09T07:19:27.157Z,100.00
2023-04-09T07:21:58.172Z,100.00
2023-04-09T07:24:32.341Z,100.00
2023-04-09T07:27:03.580Z,100.00
2023-04-09T07:29:33.725Z,100.00
2023-04-09T07:32:04.254Z,100.00
2023-04-09T07:34:34.906Z,100.00
2023-04-09T07:37:05.947Z,100.00
2023-04-09T07:39:36.352Z,100.00
2023-04-09T07:42:11.958Z,100.00
2023-04-09T07:44:43.130Z,100.00
2023-04-09T07:47:13.344Z,100.00
2023-04-09T07:49:44.073Z,100.00
2023-04-09T07:52:15.183Z,100.00
2023-04-09T07:54:45.296Z,100.00
2023-04-09T07:57:16.373Z,100.00
2023-04-09T07:59:50.443Z,100.00
2023-04-09T08:02:20.670Z,100.00
2023-04-09T08:04:51.340Z,100.00
2023-04-09T08:07:25.343Z,99.53
2023-04-09T08:09:56.044Z,100.00
2023-04-09T08:12:26.933Z,97.87
2023-04-09T08:14:57.426Z,98.72
2023-04-09T08:17:27.995Z,99.11
2023-04-09T08:19:58.500Z,96.08
2023-04-09T08:22:29.125Z,99.68
2023-04-09T08:25:02.820Z,93.69
2023-04-09T08:27:34.037Z,94.18
2023-04-09T08:30:04.826Z,94.18
2023-04-09T08:32:36.241Z,93.43
2023-04-09T08:35:06.728Z,90.07
2023-04-09T08:37:36.705Z,89.79
2023-04-09T08:40:08.391Z,94.13
2023-04-09T08:42:47.046Z,86.84
2023-04-09T08:45:13.347Z,87.79
2023-04-09T08:47:43.054Z,83.17
2023-04-09T08:50:13.989Z,79.65
2023-04-09T08:52:47.258Z,84.96
2023-04-09T08:55:15.239Z,82.50
2023-04-09T08:57:46.028Z,78.55
2023-04-09T09:00:20.347Z,77.81
2023-04-09T09:03:01.887Z,76.04
2023-04-09T09:05:45.945Z,87.22
2023-04-09T09:08:25.241Z,83.54
2023-04-09T09:10:51.891Z,75.83
2023-04-09T09:13:21.648Z,71.61
2023-04-09T09:15:55.590Z,86.12
2023-04-09T09:18:38.920Z,89.62
2023-04-09T09:21:16.924Z,85.07
2023-04-09T09:23:49.818Z,87.15
2023-04-09T09:26:26.744Z,88.36
2023-04-09T09:28:58.284Z,87.09
2023-04-09T09:31:28.756Z,81.71
2023-04-09T09:34:08.394Z,74.82
2023-04-09T09:36:39.090Z,73.68
2023-04-09T09:39:12.295Z,74.65
2023-04-09T09:41:43.877Z,73.04
2023-04-09T09:44:32.030Z,76.14
2023-04-09T09:47:03.983Z,76.87
2023-04-09T09:49:34.627Z,77.17
2023-04-09T09:52:10.154Z,77.41
2023-04-09T09:54:41.872Z,83.17
2023-04-09T09:57:13.194Z,91.44
2023-04-09T10:00:03.094Z,86.01
2023-04-09T10:02:43.063Z,85.38
2023-04-09T10:05:15.737Z,92.38
2023-04-09T10:07:48.629Z,88.44
2023-04-09T10:10:19.128Z,87.24
2023-04-09T10:12:54.093Z,83.26
2023-04-09T10:15:28.066Z,85.86
2023-04-09T10:17:59.038Z,86.64
2023-04-09T10:20:51.346Z,85.57
2023-04-09T10:23:41.598Z,85.23
2023-04-09T10:26:12.912Z,83.59
2023-04-09T10:28:42.602Z,82.03
2023-04-09T10:31:08.964Z,82.78
2023-04-09T10:33:38.763Z,84.38
2023-04-09T10:36:11.467Z,84.61
2023-04-09T10:38:40.280Z,84.24
2023-04-09T10:41:09.256Z,83.09
2023-04-09T10:43:42.720Z,87.56
2023-04-09T10:46:45.249Z,87.37
2023-04-09T10:49:17.298Z,82.93
2023-04-09T10:52:11.585Z,83.86
2023-04-09T10:54:45.389Z,83.79
2023-04-09T10:57:18.591Z,85.48
2023-04-09T10:59:54.469Z,83.59
2023-04-09T11:02:37.785Z,80.38
2023-04-09T11:05:19.036Z,83.34
2023-04-09T11:08:02.756Z,82.67
2023-04-09T11:10:33.530Z,83.83
2023-04-09T11:13:04.430Z,82.96
2023-04-09T11:15:36.267Z,83.04
2023-04-09T11:18:08.975Z,86.31
2023-04-09T11:20:39.858Z,86.74
2023-04-09T11:23:17.300Z,85.48
2023-04-09T11:25:50.501Z,86.00
2023-04-09T11:28:17.279Z,91.28
2023-04-09T11:30:46.084Z,87.99
2023-04-09T11:33:13.127Z,83.20
2023-04-09T11:35:39.342Z,75.32
2023-04-09T11:38:07.216Z,73.52
2023-04-09T11:40:33.412Z,72.15
2023-04-09T11:43:00.335Z,72.51
2023-04-09T11:45:27.997Z,72.04
2023-04-09T11:47:54.713Z,70.40
2023-04-09T11:50:21.160Z,62.25
2023-04-09T11:52:49.088Z,63.65
2023-04-09T11:55:26.037Z,61.59
2023-04-09T11:58:02.143Z,60.73
2023-04-09T12:00:28.644Z,58.64
2023-04-09T12:03:01.781Z,63.51
2023-04-09T12:05:30.392Z,61.40
2023-04-09T12:08:17.803Z,61.70
2023-04-09T12:10:44.750Z,60.77
2023-04-09T12:13:11.243Z,57.79
2023-04-09T12:15:40.502Z,57.84
2023-04-09T12:18:10.946Z,58.66
2023-04-09T12:20:38.976Z,59.00
2023-04-09T12:23:06.508Z,59.79
2023-04-09T12:25:38.023Z,63.64
2023-04-09T12:28:05.808Z,63.00
2023-04-09T12:30:32.796Z,61.27
2023-04-09T12:32:59.626Z,58.48
2023-04-09T12:35:26.202Z,55.82
2023-04-09T12:37:52.487Z,56.84
2023-04-09T12:40:19.250Z,55.70
2023-04-09T12:42:45.918Z,82.36
2023-04-09T12:45:13.768Z,59.00
2023-04-09T12:47:40.529Z,54.42
2023-04-09T12:50:08.601Z,56.02
2023-04-09T12:52:35.152Z,56.32
2023-04-09T12:55:02.240Z,57.91
2023-04-09T12:57:28.706Z,56.21
2023-04-09T12:59:55.187Z,53.34
2023-04-09T13:02:21.602Z,51.93
2023-04-09T13:04:48.297Z,52.04
2023-04-09T13:07:16.643Z,51.63
2023-04-09T13:09:43.933Z,50.77
2023-04-09T13:12:10.783Z,51.58
2023-04-09T13:14:40.296Z,52.15
2023-04-09T13:17:06.654Z,51.05
2023-04-09T13:19:32.871Z,51.22
2023-04-09T13:21:58.960Z,51.57
2023-04-09T13:24:25.328Z,50.78
2023-04-09T13:26:51.748Z,51.57
2023-04-09T13:29:17.892Z,51.75
2023-04-09T13:31:43.947Z,52.87
2023-04-09T13:34:10.210Z,52.10
2023-04-09T13:36:36.345Z,51.42
2023-04-09T13:39:05.342Z,50.71
2023-04-09T13:41:32.056Z,49.16
2023-04-09T13:43:58.921Z,49.68
2023-04-09T13:46:25.151Z,48.76
2023-04-09T13:48:51.512Z,49.86
2023-04-09T13:51:17.807Z,47.28
2023-04-09T13:53:45.095Z,47.06
2023-04-09T13:56:11.192Z,47.58
2023-04-09T13:58:37.261Z,46.40
2023-04-09T14:01:04.075Z,46.04
2023-04-09T14:03:34.423Z,47.43
2023-04-09T14:06:01.099Z,46.93
2023-04-09T14:08:29.624Z,46.56
2023-04-09T14:10:56.144Z,46.67
2023-04-09T14:13:22.249Z,45.73
2023-04-09T14:15:49.362Z,45.73
2023-04-09T14:18:15.489Z,44.79
2023-04-09T14:20:41.624Z,45.37
2023-04-09T14:23:07.729Z,46.19
2023-04-09T14:25:33.830Z,46.27
2023-04-09T14:27:59.967Z,46.73
2023-04-09T14:30:26.114Z,47.47
2023-04-09T14:32:52.258Z,46.50
2023-04-09T14:35:18.417Z,46.62
2023-04-09T14:37:46.227Z,47.27
2023-04-09T14:40:12.590Z,47.83
2023-04-09T14:42:40.434Z,48.08
2023-04-09T14:45:07.011Z,47.38
2023-04-09T14:47:33.173Z,47.71
2023-04-09T14:49:59.261Z,48.80
2023-04-09T14:52:25.426Z,47.76
2023-04-09T14:54:51.482Z,47.60
2023-04-09T14:57:17.512Z,47.48
2023-04-09T14:59:43.638Z,48.84
2023-04-09T15:02:10.500Z,49.35
2023-04-09T15:04:36.752Z,49.30
2023-04-09T15:07:02.860Z,48.86
2023-04-09T15:09:29.140Z,48.19
2023-04-09T15:11:56.520Z,48.58
2023-04-09T15:14:23.399Z,47.93
2023-04-09T15:16:49.841Z,47.20
2023-04-09T15:19:16.202Z,46.89
2023-04-09T15:21:43.132Z,47.74
2023-04-09T15:24:09.413Z,47.34
2023-04-09T15:26:35.907Z,46.45
2023-04-09T15:29:05.704Z,46.95
2023-04-09T15:31:32.328Z,48.11
2023-04-09T15:33:59.048Z,48.21
2023-04-09T15:36:27.051Z,47.85
2023-04-09T15:41:21.750Z,48.35
2023-04-09T15:43:48.061Z,48.80
2023-04-09T15:46:15.643Z,49.26
2023-04-09T15:48:42.037Z,49.55
2023-04-09T15:51:08.555Z,50.62
2023-04-09T15:53:35.144Z,50.31
2023-04-09T15:56:02.814Z,50.31
2023-04-09T15:58:29.064Z,49.96
2023-04-09T16:00:55.402Z,49.67
2023-04-09T16:03:21.600Z,49.58
2023-04-09T16:05:48.016Z,48.73
2023-04-09T16:08:14.145Z,48.29
2023-04-09T16:10:41.048Z,48.43
2023-04-09T16:13:07.436Z,48.72
2023-04-09T16:15:33.893Z,48.98
2023-04-09T16:18:00.201Z,49.56
2023-04-09T16:20:28.711Z,49.28
2023-04-09T16:22:55.166Z,49.30
2023-04-09T16:25:21.662Z,49.18
2023-04-09T16:27:47.885Z,49.55
2023-04-09T16:30:14.338Z,49.26
2023-04-09T16:32:40.792Z,48.97
2023-04-09T16:35:07.274Z,49.51
2023-04-09T16:37:34.498Z,49.04
2023-04-09T16:40:00.686Z,48.92
2023-04-09T16:42:27.028Z,49.60
2023-04-09T16:44:53.716Z,49.09
2023-04-09T16:47:20.395Z,48.39
2023-04-09T16:49:46.554Z,48.38
2023-04-09T16:52:13.085Z,48.88
2023-04-09T16:54:39.263Z,49.45
2023-04-09T16:57:05.720Z,49.27
2023-04-09T16:59:31.981Z,48.97
2023-04-09T17:01:58.305Z,49.16
2023-04-09T17:04:25.815Z,48.73
2023-04-09T17:06:51.976Z,49.03
2023-04-09T17:09:18.391Z,48.68
2023-04-09T17:11:46.237Z,49.20
2023-04-09T17:14:14.410Z,49.45
2023-04-09T17:16:40.813Z,49.08
2023-04-09T17:19:09.124Z,48.90
2023-04-09T17:21:35.990Z,49.17
2023-04-09T17:24:02.300Z,48.75
2023-04-09T17:26:28.643Z,48.76
2023-04-09T17:28:54.896Z,48.93
2023-04-09T17:31:23.282Z,48.91
2023-04-09T17:33:49.677Z,48.63
2023-04-09T17:36:19.933Z,48.52
2023-04-09T17:38:47.033Z,48.98
2023-04-09T17:41:13.126Z,49.15
2023-04-09T17:43:39.243Z,48.80
2023-04-09T17:46:08.080Z,49.15
2023-04-09T17:48:36.319Z,49.52
2023-04-09T17:51:02.955Z,50.38
2023-04-09T17:53:29.050Z,50.39
2023-04-09T17:55:55.140Z,50.63
2023-04-09T17:58:21.867Z,50.66
2023-04-09T18:00:48.043Z,50.77
2023-04-09T18:03:14.863Z,50.86
2023-04-09T18:05:41.308Z,51.20
2023-04-09T18:08:07.469Z,51.58
2023-04-09T18:10:33.818Z,51.59
2023-04-09T18:13:00.116Z,51.99
2023-04-09T18:15:26.451Z,52.37
2023-04-09T18:17:52.745Z,52.74
2023-04-09T18:20:18.895Z,54.11
2023-04-09T18:22:45.534Z,55.65
2023-04-09T18:25:11.668Z,57.76
2023-04-09T18:27:37.780Z,57.53
2023-04-09T18:30:04.421Z,57.84
2023-04-09T18:32:31.545Z,58.45
2023-04-09T18:34:57.678Z,58.00
2023-04-09T18:37:23.880Z,58.74
2023-04-09T18:39:50.156Z,59.44
2023-04-09T18:42:16.241Z,59.07
2023-04-09T18:44:42.348Z,59.88
2023-04-09T18:47:08.672Z,60.38
2023-04-09T18:49:35.450Z,61.68
2023-04-09T18:52:02.090Z,62.24
2023-04-09T18:54:28.192Z,62.54
2023-04-09T18:56:54.295Z,62.20
2023-04-09T18:59:21.073Z,61.71
2023-04-09T19:01:47.214Z,61.53
2023-04-09T19:04:13.543Z,60.76
2023-04-09T19:06:40.115Z,63.52
2023-04-09T19:09:06.800Z,64.01
2023-04-09T19:11:32.893Z,64.72
2023-04-09T19:13:59.003Z,64.21
2023-04-09T19:16:25.433Z,64.88
2023-04-09T19:18:51.808Z,64.71
2023-04-09T19:21:17.956Z,63.00
2023-04-09T19:23:44.894Z,68.03
2023-04-09T19:26:11.152Z,65.98
2023-04-09T19:28:37.252Z,65.67
2023-04-09T19:31:05.287Z,67.15
2023-04-09T19:33:31.806Z,66.90
2023-04-09T19:35:57.997Z,65.10
2023-04-09T19:38:24.205Z,65.99
2023-04-09T19:40:50.268Z,67.37
2023-04-09T19:43:16.353Z,68.98
2023-04-09T19:45:42.798Z,72.13
2023-04-09T19:48:08.949Z,68.15
2023-04-09T19:50:39.717Z,71.98
2023-04-09T19:53:06.289Z,77.98
2023-04-09T19:55:33.234Z,76.99
2023-04-09T19:57:59.419Z,72.56
2023-04-09T20:00:25.975Z,71.36
2023-04-09T20:02:52.732Z,70.42
2023-04-09T20:05:20.385Z,72.06
2023-04-09T20:07:47.342Z,71.77
2023-04-09T20:10:13.401Z,75.03
2023-04-09T20:12:39.642Z,72.80
2023-04-09T20:15:07.954Z,79.62
2023-04-09T20:17:35.438Z,76.26
2023-04-09T20:20:01.543Z,80.65
2023-04-09T20:22:28.780Z,77.18
2023-04-09T20:24:55.806Z,79.20
2023-04-09T20:27:21.941Z,80.75
2023-04-09T20:29:48.710Z,78.27
2023-04-09T20:32:14.907Z,78.87
2023-04-09T20:34:41.067Z,84.26
2023-04-09T20:37:07.116Z,79.83
2023-04-09T20:39:33.225Z,79.23
2023-04-09T20:41:59.286Z,80.26
2023-04-09T20:44:26.782Z,77.80
2023-04-09T20:46:52.873Z,78.47
2023-04-09T20:49:19.039Z,78.68
2023-04-09T20:51:45.586Z,83.54
2023-04-09T20:54:11.727Z,80.62
2023-04-09T20:56:37.814Z,82.52
2023-04-09T20:59:03.937Z,83.07
2023-04-09T21:01:31.462Z,86.69
2023-04-09T21:03:57.712Z,83.94
2023-04-09T21:06:23.977Z,82.64
2023-04-09T21:08:50.409Z,84.29
2023-04-09T21:11:16.644Z,83.23
2023-04-09T21:13:53.657Z,84.17
2023-04-09T21:16:21.666Z,83.16
2023-04-09T21:18:48.225Z,83.62
2023-04-09T21:21:14.288Z,84.50
2023-04-09T21:23:40.844Z,85.82
2023-04-09T21:26:08.255Z,91.27
2023-04-09T21:28:34.324Z,89.82
2023-04-09T21:31:00.441Z,89.49
2023-04-09T21:33:28.554Z,94.24
2023-04-09T21:35:56.310Z,91.18
2023-04-09T21:38:22.443Z,97.64
2023-04-09T21:40:48.584Z,100.00
2023-04-09T21:43:14.921Z,100.00
2023-04-09T21:45:41.078Z,98.70
2023-04-09T21:48:08.476Z,98.74
2023-04-09T21:50:35.181Z,99.34
2023-04-09T21:53:02.352Z,97.53
2023-04-09T21:55:28.748Z,95.90
2023-04-09T21:57:55.513Z,99.34
2023-04-09T22:00:21.817Z,95.13
2023-04-09T22:02:48.005Z,93.36
2023-04-09T22:05:14.143Z,95.84
2023-04-09T22:07:41.727Z,95.55
2023-04-09T22:10:09.266Z,94.39
2023-04-09T22:12:36.475Z,97.89
2023-04-09T22:15:04.150Z,96.48
2023-04-09T22:17:30.416Z,94.75
2023-04-09T22:19:56.715Z,95.10
2023-04-09T22:22:22.805Z,95.47
2023-04-09T22:24:48.924Z,95.13
2023-04-09T22:27:15.419Z,94.47
2023-04-09T22:29:41.569Z,94.59
2023-04-09T22:32:08.497Z,93.65
2023-04-09T22:34:34.597Z,97.23
2023-04-09T22:37:01.330Z,100.00
2023-04-09T22:39:27.420Z,100.00
2023-04-09T22:41:53.533Z,100.00
2023-04-09T22:44:19.957Z,100.00
2023-04-09T22:46:46.366Z,99.00
2023-04-09T22:49:12.495Z,100.00
2023-04-09T22:51:40.903Z,100.00
2023-04-09T22:54:07.915Z,98.95
2023-04-09T22:56:34.025Z,100.00
2023-04-09T22:59:00.180Z,100.00
2023-04-09T23:01:26.458Z,100.00
2023-04-09T23:03:52.657Z,100.00
2023-04-09T23:06:18.815Z,100.00
2023-04-09T23:08:45.125Z,99.02
2023-04-09T23:11:11.558Z,100.00
2023-04-09T23:13:38.071Z,100.00
2023-04-09T23:16:08.391Z,99.54
2023-04-09T23:18:36.006Z,99.89
2023-04-09T23:21:06.330Z,100.00
2023-04-09T23:23:33.303Z,100.00
2023-04-09T23:25:59.376Z,100.00
2023-04-09T23:28:25.507Z,100.00
2023-04-09T23:30:51.654Z,100.00
2023-04-09T23:33:18.809Z,100.00
2023-04-09T23:35:46.110Z,100.00
2023-04-09T23:38:12.361Z,100.00
2023-04-09T23:40:38.554Z,100.00
2023-04-09T23:43:04.684Z,100.00
2023-04-09T23:45:31.010Z,100.00
2023-04-09T23:47:57.124Z,100.00
2023-04-09T23:50:23.847Z,100.00
2023-04-09T23:52:50.746Z,100.00
2023-04-09T23:55:16.851Z,100.00
2023-04-09T23:57:42.993Z,100.00
